sensor_id;sensor_type;location;lat;lon;timestamp;temperature;humidity
53310;DHT22;39197;53.200;5.792;2023-12-28T00:00:18;9.90;99.90
53310;DHT22;39197;53.200;5.792;2023-12-28T00:02:43;9.90;99.90
53310;DHT22;39197;53.200;5.792;2023-12-28T00:05:09;9.90;99.90
53310;DHT22;39197;53.200;5.792;2023-12-28T00:07:35;9.90;99.90
53310;DHT22;39197;53.200;5.792;2023-12-28T00:10:02;9.90;99.90
53310;DHT22;39197;53.200;5.792;2023-12-28T00:12:27;9.80;99.90
53310;DHT22;39197;53.200;5.792;2023-12-28T00:14:53;9.70;99.90
53310;DHT22;39197;53.200;5.792;2023-12-28T00:17:19;9.90;99.90
53310;DHT22;39197;53.200;5.792;2023-12-28T00:19:44;9.80;99.90
53310;DHT22;39197;53.200;5.792;2023-12-28T00:22:10;9.80;99.90
53310;DHT22;39197;53.200;5.792;2023-12-28T00:24:35;9.80;99.90
53310;DHT22;39197;53.200;5.792;2023-12-28T00:27:01;9.90;99.90
53310;DHT22;39197;53.200;5.792;2023-12-28T00:29:27;9.80;99.90
53310;DHT22;39197;53.200;5.792;2023-12-28T00:31:54;9.80;99.90
53310;DHT22;39197;53.200;5.792;2023-12-28T00:34:19;9.90;99.90
53310;DHT22;39197;53.200;5.792;2023-12-28T00:36:45;9.70;99.90
53310;DHT22;39197;53.200;5.792;2023-12-28T00:39:10;9.80;99.90
53310;DHT22;39197;53.200;5.792;2023-12-28T00:41:36;9.70;99.90
53310;DHT22;39197;53.200;5.792;2023-12-28T00:44:01;9.80;99.90
53310;DHT22;39197;53.200;5.792;2023-12-28T00:46:27;9.70;99.90
53310;DHT22;39197;53.200;5.792;2023-12-28T00:48:53;9.70;99.90
53310;DHT22;39197;53.200;5.792;2023-12-28T00:51:20;9.70;99.90
53310;DHT22;39197;53.200;5.792;2023-12-28T00:53:46;9.70;99.90
53310;DHT22;39197;53.200;5.792;2023-12-28T00:56:12;9.60;99.90
53310;DHT22;39197;53.200;5.792;2023-12-28T00:58:40;9.60;99.90
53310;DHT22;39197;53.200;5.792;2023-12-28T01:01:06;9.60;99.90
53310;DHT22;39197;53.200;5.792;2023-12-28T01:03:32;9.60;99.90
53310;DHT22;39197;53.200;5.792;2023-12-28T01:05:57;9.70;99.90
53310;DHT22;39197;53.200;5.792;2023-12-28T01:08:23;9.60;99.90
53310;DHT22;39197;53.200;5.792;2023-12-28T01:10:48;9.50;99.90
53310;DHT22;39197;53.200;5.792;2023-12-28T01:13:14;9.50;99.90
53310;DHT22;39197;53.200;5.792;2023-12-28T01:15:39;9.70;99.90
53310;DHT22;39197;53.200;5.792;2023-12-28T01:18:05;9.60;99.90
53310;DHT22;39197;53.200;5.792;2023-12-28T01:20:31;9.50;99.90
53310;DHT22;39197;53.200;5.792;2023-12-28T01:22:57;9.60;99.90
53310;DHT22;39197;53.200;5.792;2023-12-28T01:25:23;9.50;99.90
53310;DHT22;39197;53.200;5.792;2023-12-28T01:27:48;9.40;99.90
53310;DHT22;39197;53.200;5.792;2023-12-28T01:30:14;9.50;99.90
53310;DHT22;39197;53.200;5.792;2023-12-28T01:32:39;9.50;99.90
53310;DHT22;39197;53.200;5.792;2023-12-28T01:35:05;9.50;99.90
53310;DHT22;39197;53.200;5.792;2023-12-28T01:37:31;9.40;99.90
53310;DHT22;39197;53.200;5.792;2023-12-28T01:39:59;9.40;99.90
53310;DHT22;39197;53.200;5.792;2023-12-28T01:42:25;9.50;99.90
53310;DHT22;39197;53.200;5.792;2023-12-28T01:44:51;9.50;99.90
53310;DHT22;39197;53.200;5.792;2023-12-28T01:47:17;9.50;99.90
53310;DHT22;39197;53.200;5.792;2023-12-28T01:49:43;9.50;99.90
53310;DHT22;39197;53.200;5.792;2023-12-28T01:52:09;9.50;99.90
53310;DHT22;39197;53.200;5.792;2023-12-28T01:54:35;9.50;99.90
53310;DHT22;39197;53.200;5.792;2023-12-28T01:57:03;9.60;99.90
53310;DHT22;39197;53.200;5.792;2023-12-28T01:59:31;9.80;99.90
53310;DHT22;39197;53.200;5.792;2023-12-28T02:01:57;9.60;99.90
53310;DHT22;39197;53.200;5.792;2023-12-28T02:04:23;9.70;99.90
53310;DHT22;39197;53.200;5.792;2023-12-28T02:06:57;9.70;99.90
53310;DHT22;39197;53.200;5.792;2023-12-28T02:09:23;9.70;99.90
53310;DHT22;39197;53.200;5.792;2023-12-28T02:11:49;9.70;99.90
53310;DHT22;39197;53.200;5.792;2023-12-28T02:14:15;9.90;99.90
53310;DHT22;39197;53.200;5.792;2023-12-28T02:16:47;9.70;99.90
53310;DHT22;39197;53.200;5.792;2023-12-28T02:21:59;9.80;99.90
53310;DHT22;39197;53.200;5.792;2023-12-28T02:24:27;9.90;99.90
53310;DHT22;39197;53.200;5.792;2023-12-28T02:26:53;9.90;99.90
53310;DHT22;39197;53.200;5.792;2023-12-28T02:29:18;10.00;99.90
53310;DHT22;39197;53.200;5.792;2023-12-28T02:31:53;10.10;99.90
53310;DHT22;39197;53.200;5.792;2023-12-28T02:34:30;10.20;99.90
53310;DHT22;39197;53.200;5.792;2023-12-28T02:37:00;10.20;99.90
53310;DHT22;39197;53.200;5.792;2023-12-28T02:39:27;10.00;99.90
53310;DHT22;39197;53.200;5.792;2023-12-28T02:41:54;10.10;99.90
53310;DHT22;39197;53.200;5.792;2023-12-28T02:44:21;10.20;99.90
53310;DHT22;39197;53.200;5.792;2023-12-28T02:46:46;10.30;99.90
53310;DHT22;39197;53.200;5.792;2023-12-28T02:49:12;10.50;99.90
53310;DHT22;39197;53.200;5.792;2023-12-28T02:51:38;10.30;99.90
53310;DHT22;39197;53.200;5.792;2023-12-28T02:54:04;10.50;99.90
53310;DHT22;39197;53.200;5.792;2023-12-28T02:56:29;10.40;99.90
53310;DHT22;39197;53.200;5.792;2023-12-28T02:58:57;10.50;99.90
53310;DHT22;39197;53.200;5.792;2023-12-28T03:01:23;10.50;99.90
53310;DHT22;39197;53.200;5.792;2023-12-28T03:03:48;10.50;99.90
53310;DHT22;39197;53.200;5.792;2023-12-28T03:06:14;10.60;99.90
53310;DHT22;39197;53.200;5.792;2023-12-28T03:08:40;10.60;99.90
53310;DHT22;39197;53.200;5.792;2023-12-28T03:11:05;10.60;99.90
53310;DHT22;39197;53.200;5.792;2023-12-28T03:13:31;10.60;99.90
53310;DHT22;39197;53.200;5.792;2023-12-28T03:15:57;10.60;99.90
53310;DHT22;39197;53.200;5.792;2023-12-28T03:18:23;10.50;99.90
53310;DHT22;39197;53.200;5.792;2023-12-28T03:20:48;10.60;99.90
53310;DHT22;39197;53.200;5.792;2023-12-28T03:23:14;10.50;99.90
53310;DHT22;39197;53.200;5.792;2023-12-28T03:25:40;10.50;99.90
53310;DHT22;39197;53.200;5.792;2023-12-28T03:28:05;10.50;99.90
53310;DHT22;39197;53.200;5.792;2023-12-28T03:30:31;10.50;99.90
53310;DHT22;39197;53.200;5.792;2023-12-28T03:32:56;10.50;99.90
53310;DHT22;39197;53.200;5.792;2023-12-28T03:35:22;10.60;99.90
53310;DHT22;39197;53.200;5.792;2023-12-28T03:37:48;10.50;99.90
53310;DHT22;39197;53.200;5.792;2023-12-28T03:40:13;10.50;99.90
53310;DHT22;39197;53.200;5.792;2023-12-28T03:42:39;10.60;99.90
53310;DHT22;39197;53.200;5.792;2023-12-28T03:45:05;10.60;99.90
53310;DHT22;39197;53.200;5.792;2023-12-28T03:47:31;10.60;99.90
53310;DHT22;39197;53.200;5.792;2023-12-28T03:49:56;10.60;99.90
53310;DHT22;39197;53.200;5.792;2023-12-28T03:52:25;10.60;99.90
53310;DHT22;39197;53.200;5.792;2023-12-28T03:54:51;10.50;99.90
53310;DHT22;39197;53.200;5.792;2023-12-28T03:57:16;10.70;99.90
53310;DHT22;39197;53.200;5.792;2023-12-28T03:59:42;10.70;99.90
53310;DHT22;39197;53.200;5.792;2023-12-28T04:02:07;10.70;99.90
53310;DHT22;39197;53.200;5.792;2023-12-28T04:04:33;10.60;99.90
53310;DHT22;39197;53.200;5.792;2023-12-28T04:06:58;10.70;99.90
53310;DHT22;39197;53.200;5.792;2023-12-28T04:09:24;10.60;99.90
53310;DHT22;39197;53.200;5.792;2023-12-28T04:11:50;10.60;99.90
53310;DHT22;39197;53.200;5.792;2023-12-28T04:14:15;10.70;99.90
53310;DHT22;39197;53.200;5.792;2023-12-28T04:16:41;10.60;99.90
53310;DHT22;39197;53.200;5.792;2023-12-28T04:19:06;10.80;99.90
53310;DHT22;39197;53.200;5.792;2023-12-28T04:21:32;10.70;99.90
53310;DHT22;39197;53.200;5.792;2023-12-28T04:23:57;10.60;99.90
53310;DHT22;39197;53.200;5.792;2023-12-28T04:26:23;10.60;99.90
53310;DHT22;39197;53.200;5.792;2023-12-28T04:28:49;10.60;99.90
53310;DHT22;39197;53.200;5.792;2023-12-28T04:31:14;10.60;99.90
53310;DHT22;39197;53.200;5.792;2023-12-28T04:33:40;10.70;99.90
53310;DHT22;39197;53.200;5.792;2023-12-28T04:36:05;10.60;99.90
53310;DHT22;39197;53.200;5.792;2023-12-28T04:38:31;10.70;99.90
53310;DHT22;39197;53.200;5.792;2023-12-28T04:40:58;10.70;99.90
53310;DHT22;39197;53.200;5.792;2023-12-28T04:43:23;10.80;99.90
53310;DHT22;39197;53.200;5.792;2023-12-28T04:45:50;10.80;99.90
53310;DHT22;39197;53.200;5.792;2023-12-28T04:48:16;10.80;99.90
53310;DHT22;39197;53.200;5.792;2023-12-28T04:50:46;10.80;99.90
53310;DHT22;39197;53.200;5.792;2023-12-28T04:53:13;10.80;99.90
53310;DHT22;39197;53.200;5.792;2023-12-28T04:55:38;10.70;99.90
53310;DHT22;39197;53.200;5.792;2023-12-28T04:58:04;10.70;99.90
53310;DHT22;39197;53.200;5.792;2023-12-28T05:00:29;10.60;99.90
53310;DHT22;39197;53.200;5.792;2023-12-28T05:02:55;10.60;99.90
53310;DHT22;39197;53.200;5.792;2023-12-28T05:05:20;10.60;99.90
53310;DHT22;39197;53.200;5.792;2023-12-28T05:07:46;10.60;99.90
53310;DHT22;39197;53.200;5.792;2023-12-28T05:10:11;10.50;99.90
53310;DHT22;39197;53.200;5.792;2023-12-28T05:12:37;10.50;99.90
53310;DHT22;39197;53.200;5.792;2023-12-28T05:15:03;10.50;99.90
53310;DHT22;39197;53.200;5.792;2023-12-28T05:17:29;10.50;99.90
53310;DHT22;39197;53.200;5.792;2023-12-28T05:19:54;10.60;99.90
53310;DHT22;39197;53.200;5.792;2023-12-28T05:22:21;10.50;99.90
53310;DHT22;39197;53.200;5.792;2023-12-28T05:24:47;10.60;99.90
53310;DHT22;39197;53.200;5.792;2023-12-28T05:27:12;10.60;99.90
53310;DHT22;39197;53.200;5.792;2023-12-28T05:29:38;10.50;99.90
53310;DHT22;39197;53.200;5.792;2023-12-28T05:32:04;10.50;99.90
53310;DHT22;39197;53.200;5.792;2023-12-28T05:34:30;10.50;99.90
53310;DHT22;39197;53.200;5.792;2023-12-28T05:36:56;10.50;99.90
53310;DHT22;39197;53.200;5.792;2023-12-28T05:39:21;10.50;99.90
53310;DHT22;39197;53.200;5.792;2023-12-28T05:41:47;10.50;99.90
53310;DHT22;39197;53.200;5.792;2023-12-28T05:44:13;10.50;99.90
53310;DHT22;39197;53.200;5.792;2023-12-28T05:46:39;10.40;99.90
53310;DHT22;39197;53.200;5.792;2023-12-28T05:49:05;10.40;99.90
53310;DHT22;39197;53.200;5.792;2023-12-28T05:51:37;10.50;99.90
53310;DHT22;39197;53.200;5.792;2023-12-28T05:54:04;10.40;99.90
53310;DHT22;39197;53.200;5.792;2023-12-28T05:56:29;10.40;99.90
53310;DHT22;39197;53.200;5.792;2023-12-28T05:58:55;10.40;99.90
53310;DHT22;39197;53.200;5.792;2023-12-28T06:01:20;10.50;99.90
53310;DHT22;39197;53.200;5.792;2023-12-28T06:03:46;10.40;99.90
53310;DHT22;39197;53.200;5.792;2023-12-28T06:06:14;10.50;99.90
53310;DHT22;39197;53.200;5.792;2023-12-28T06:08:40;10.60;99.90
53310;DHT22;39197;53.200;5.792;2023-12-28T06:11:05;10.60;99.90
53310;DHT22;39197;53.200;5.792;2023-12-28T06:13:31;10.50;99.90
53310;DHT22;39197;53.200;5.792;2023-12-28T06:15:57;10.70;99.90
53310;DHT22;39197;53.200;5.792;2023-12-28T06:18:22;10.70;99.90
53310;DHT22;39197;53.200;5.792;2023-12-28T06:20:48;10.60;99.90
53310;DHT22;39197;53.200;5.792;2023-12-28T06:23:13;10.60;99.90
53310;DHT22;39197;53.200;5.792;2023-12-28T06:25:39;10.60;99.90
53310;DHT22;39197;53.200;5.792;2023-12-28T06:28:04;10.60;99.90
53310;DHT22;39197;53.200;5.792;2023-12-28T06:30:30;10.70;99.90
53310;DHT22;39197;53.200;5.792;2023-12-28T06:32:56;10.60;99.90
53310;DHT22;39197;53.200;5.792;2023-12-28T06:35:21;10.60;99.90
53310;DHT22;39197;53.200;5.792;2023-12-28T06:37:47;10.60;99.90
53310;DHT22;39197;53.200;5.792;2023-12-28T06:40:12;10.50;99.90
53310;DHT22;39197;53.200;5.792;2023-12-28T06:42:38;10.60;99.90
53310;DHT22;39197;53.200;5.792;2023-12-28T06:45:04;10.60;99.90
53310;DHT22;39197;53.200;5.792;2023-12-28T06:47:30;10.60;99.90
53310;DHT22;39197;53.200;5.792;2023-12-28T06:49:55;10.50;99.90
53310;DHT22;39197;53.200;5.792;2023-12-28T06:52:21;10.60;99.90
53310;DHT22;39197;53.200;5.792;2023-12-28T06:54:46;10.60;99.90
53310;DHT22;39197;53.200;5.792;2023-12-28T06:57:12;10.60;99.90
53310;DHT22;39197;53.200;5.792;2023-12-28T06:59:37;10.70;99.90
53310;DHT22;39197;53.200;5.792;2023-12-28T07:02:03;10.70;99.90
53310;DHT22;39197;53.200;5.792;2023-12-28T07:04:29;10.70;99.90
53310;DHT22;39197;53.200;5.792;2023-12-28T07:06:55;10.50;99.90
53310;DHT22;39197;53.200;5.792;2023-12-28T07:09:20;10.50;99.90
53310;DHT22;39197;53.200;5.792;2023-12-28T07:11:46;10.60;99.90
53310;DHT22;39197;53.200;5.792;2023-12-28T07:14:12;10.50;99.90
53310;DHT22;39197;53.200;5.792;2023-12-28T07:16:37;10.50;99.90
53310;DHT22;39197;53.200;5.792;2023-12-28T07:19:03;10.50;99.90
53310;DHT22;39197;53.200;5.792;2023-12-28T07:21:29;10.50;99.90
53310;DHT22;39197;53.200;5.792;2023-12-28T07:23:55;10.50;99.90
53310;DHT22;39197;53.200;5.792;2023-12-28T07:26:20;10.40;99.90
53310;DHT22;39197;53.200;5.792;2023-12-28T07:28:46;10.40;99.90
53310;DHT22;39197;53.200;5.792;2023-12-28T07:31:24;10.60;99.90
53310;DHT22;39197;53.200;5.792;2023-12-28T07:33:50;10.50;99.90
53310;DHT22;39197;53.200;5.792;2023-12-28T07:36:15;10.50;99.90
53310;DHT22;39197;53.200;5.792;2023-12-28T07:38:41;10.50;99.90
53310;DHT22;39197;53.200;5.792;2023-12-28T07:41:07;10.60;99.90
53310;DHT22;39197;53.200;5.792;2023-12-28T07:43:32;10.60;99.90
53310;DHT22;39197;53.200;5.792;2023-12-28T07:45:58;10.60;99.90
53310;DHT22;39197;53.200;5.792;2023-12-28T07:48:23;10.70;99.90
53310;DHT22;39197;53.200;5.792;2023-12-28T07:50:49;10.60;99.90
53310;DHT22;39197;53.200;5.792;2023-12-28T07:53:17;10.60;99.90
53310;DHT22;39197;53.200;5.792;2023-12-28T07:55:42;10.70;99.90
53310;DHT22;39197;53.200;5.792;2023-12-28T07:58:08;10.70;99.90
53310;DHT22;39197;53.200;5.792;2023-12-28T08:00:33;10.60;99.90
53310;DHT22;39197;53.200;5.792;2023-12-28T08:02:59;10.70;99.90
53310;DHT22;39197;53.200;5.792;2023-12-28T08:05:24;10.60;99.90
53310;DHT22;39197;53.200;5.792;2023-12-28T08:07:50;10.60;99.90
53310;DHT22;39197;53.200;5.792;2023-12-28T08:10:15;10.60;99.90
53310;DHT22;39197;53.200;5.792;2023-12-28T08:12:41;10.70;99.90
53310;DHT22;39197;53.200;5.792;2023-12-28T08:15:08;10.50;99.90
53310;DHT22;39197;53.200;5.792;2023-12-28T08:17:34;10.60;99.90
53310;DHT22;39197;53.200;5.792;2023-12-28T08:19:59;10.60;99.90
53310;DHT22;39197;53.200;5.792;2023-12-28T08:22:25;10.60;99.90
53310;DHT22;39197;53.200;5.792;2023-12-28T08:24:51;10.60;99.90
53310;DHT22;39197;53.200;5.792;2023-12-28T08:27:16;10.60;99.90
53310;DHT22;39197;53.200;5.792;2023-12-28T08:29:42;10.60;99.90
53310;DHT22;39197;53.200;5.792;2023-12-28T08:32:08;10.70;99.90
53310;DHT22;39197;53.200;5.792;2023-12-28T08:34:33;10.60;99.90
53310;DHT22;39197;53.200;5.792;2023-12-28T08:36:59;10.60;99.90
53310;DHT22;39197;53.200;5.792;2023-12-28T08:39:24;10.60;99.90
53310;DHT22;39197;53.200;5.792;2023-12-28T08:41:50;10.60;99.90
53310;DHT22;39197;53.200;5.792;2023-12-28T08:44:15;10.60;99.90
53310;DHT22;39197;53.200;5.792;2023-12-28T08:46:41;10.70;99.90
53310;DHT22;39197;53.200;5.792;2023-12-28T08:49:06;10.60;99.90
53310;DHT22;39197;53.200;5.792;2023-12-28T08:51:32;10.80;99.90
53310;DHT22;39197;53.200;5.792;2023-12-28T08:53:58;10.70;99.90
53310;DHT22;39197;53.200;5.792;2023-12-28T08:56:23;10.80;99.90
53310;DHT22;39197;53.200;5.792;2023-12-28T08:58:49;10.70;99.90
53310;DHT22;39197;53.200;5.792;2023-12-28T09:01:20;10.80;99.90
53310;DHT22;39197;53.200;5.792;2023-12-28T09:03:54;10.80;99.90
53310;DHT22;39197;53.200;5.792;2023-12-28T09:06:21;10.80;99.90
53310;DHT22;39197;53.200;5.792;2023-12-28T09:08:51;10.80;99.90
53310;DHT22;39197;53.200;5.792;2023-12-28T09:11:18;10.70;99.90
53310;DHT22;39197;53.200;5.792;2023-12-28T09:13:44;10.80;99.90
53310;DHT22;39197;53.200;5.792;2023-12-28T09:16:12;10.80;99.90
53310;DHT22;39197;53.200;5.792;2023-12-28T09:18:38;10.90;99.90
53310;DHT22;39197;53.200;5.792;2023-12-28T09:21:06;10.70;99.90
53310;DHT22;39197;53.200;5.792;2023-12-28T09:23:32;10.80;99.90
53310;DHT22;39197;53.200;5.792;2023-12-28T09:26:02;10.70;99.90
53310;DHT22;39197;53.200;5.792;2023-12-28T09:28:34;10.70;99.90
53310;DHT22;39197;53.200;5.792;2023-12-28T09:31:00;10.70;99.90
53310;DHT22;39197;53.200;5.792;2023-12-28T09:33:26;10.60;99.90
53310;DHT22;39197;53.200;5.792;2023-12-28T09:35:51;10.70;99.90
53310;DHT22;39197;53.200;5.792;2023-12-28T09:38:19;10.70;99.90
53310;DHT22;39197;53.200;5.792;2023-12-28T09:40:44;10.70;99.90
53310;DHT22;39197;53.200;5.792;2023-12-28T09:43:21;10.80;99.90
53310;DHT22;39197;53.200;5.792;2023-12-28T09:45:47;10.70;99.90
53310;DHT22;39197;53.200;5.792;2023-12-28T09:48:17;10.70;99.90
53310;DHT22;39197;53.200;5.792;2023-12-28T09:50:52;10.80;99.90
53310;DHT22;39197;53.200;5.792;2023-12-28T09:53:22;10.80;99.90
53310;DHT22;39197;53.200;5.792;2023-12-28T09:55:48;10.70;99.90
53310;DHT22;39197;53.200;5.792;2023-12-28T09:58:16;10.80;99.90
53310;DHT22;39197;53.200;5.792;2023-12-28T10:00:47;10.80;99.90
53310;DHT22;39197;53.200;5.792;2023-12-28T10:03:14;10.80;99.90
53310;DHT22;39197;53.200;5.792;2023-12-28T10:05:43;10.90;99.90
53310;DHT22;39197;53.200;5.792;2023-12-28T10:08:11;10.80;99.90
53310;DHT22;39197;53.200;5.792;2023-12-28T10:10:38;10.90;99.90
53310;DHT22;39197;53.200;5.792;2023-12-28T10:13:03;10.80;99.90
53310;DHT22;39197;53.200;5.792;2023-12-28T10:15:31;10.90;99.90
53310;DHT22;39197;53.200;5.792;2023-12-28T10:17:56;10.90;99.90
53310;DHT22;39197;53.200;5.792;2023-12-28T10:20:22;10.80;99.90
53310;DHT22;39197;53.200;5.792;2023-12-28T10:22:51;10.90;99.90
53310;DHT22;39197;53.200;5.792;2023-12-28T10:25:17;10.90;99.90
53310;DHT22;39197;53.200;5.792;2023-12-28T10:27:42;10.90;99.90
53310;DHT22;39197;53.200;5.792;2023-12-28T10:30:09;10.80;99.90
53310;DHT22;39197;53.200;5.792;2023-12-28T10:32:36;10.80;99.90
53310;DHT22;39197;53.200;5.792;2023-12-28T10:35:01;10.80;99.90
53310;DHT22;39197;53.200;5.792;2023-12-28T10:37:30;10.80;99.90
53310;DHT22;39197;53.200;5.792;2023-12-28T10:39:58;10.90;99.90
53310;DHT22;39197;53.200;5.792;2023-12-28T10:42:31;10.80;99.90
53310;DHT22;39197;53.200;5.792;2023-12-28T10:45:03;10.90;99.90
53310;DHT22;39197;53.200;5.792;2023-12-28T10:47:30;10.90;99.90
53310;DHT22;39197;53.200;5.792;2023-12-28T10:49:59;10.80;99.90
53310;DHT22;39197;53.200;5.792;2023-12-28T10:52:27;10.80;99.90
53310;DHT22;39197;53.200;5.792;2023-12-28T10:58:16;11.00;99.90
53310;DHT22;39197;53.200;5.792;2023-12-28T11:00:52;11.00;99.90
53310;DHT22;39197;53.200;5.792;2023-12-28T11:03:23;11.00;99.90
53310;DHT22;39197;53.200;5.792;2023-12-28T11:05:53;11.00;99.90
53310;DHT22;39197;53.200;5.792;2023-12-28T11:08:19;10.90;99.90
53310;DHT22;39197;53.200;5.792;2023-12-28T11:10:46;10.90;99.90
53310;DHT22;39197;53.200;5.792;2023-12-28T11:13:13;11.00;99.90
53310;DHT22;39197;53.200;5.792;2023-12-28T11:15:41;11.10;99.90
53310;DHT22;39197;53.200;5.792;2023-12-28T11:18:06;11.10;99.90
53310;DHT22;39197;53.200;5.792;2023-12-28T11:20:33;11.10;99.90
53310;DHT22;39197;53.200;5.792;2023-12-28T11:22:59;11.10;99.90
53310;DHT22;39197;53.200;5.792;2023-12-28T11:25:31;11.10;99.90
53310;DHT22;39197;53.200;5.792;2023-12-28T11:27:56;11.00;99.90
53310;DHT22;39197;53.200;5.792;2023-12-28T11:30:26;11.00;99.90
53310;DHT22;39197;53.200;5.792;2023-12-28T11:32:56;11.00;99.90
53310;DHT22;39197;53.200;5.792;2023-12-28T11:35:23;11.00;99.90
53310;DHT22;39197;53.200;5.792;2023-12-28T11:37:51;11.00;99.90
53310;DHT22;39197;53.200;5.792;2023-12-28T11:40:18;10.90;99.90
53310;DHT22;39197;53.200;5.792;2023-12-28T11:42:53;11.00;99.90
53310;DHT22;39197;53.200;5.792;2023-12-28T11:45:20;11.00;99.90
53310;DHT22;39197;53.200;5.792;2023-12-28T11:47:47;10.90;99.90
53310;DHT22;39197;53.200;5.792;2023-12-28T11:50:13;11.00;99.90
53310;DHT22;39197;53.200;5.792;2023-12-28T11:52:39;10.80;99.90
53310;DHT22;39197;53.200;5.792;2023-12-28T11:55:05;11.00;99.90
53310;DHT22;39197;53.200;5.792;2023-12-28T11:57:31;10.90;99.90
53310;DHT22;39197;53.200;5.792;2023-12-28T12:00:02;10.90;99.90
53310;DHT22;39197;53.200;5.792;2023-12-28T12:02:29;10.90;99.90
53310;DHT22;39197;53.200;5.792;2023-12-28T12:04:55;10.90;99.90
53310;DHT22;39197;53.200;5.792;2023-12-28T12:07:24;10.90;99.90
53310;DHT22;39197;53.200;5.792;2023-12-28T12:09:55;11.00;99.90
53310;DHT22;39197;53.200;5.792;2023-12-28T12:12:21;11.00;99.90
53310;DHT22;39197;53.200;5.792;2023-12-28T12:14:46;11.00;99.90
53310;DHT22;39197;53.200;5.792;2023-12-28T12:17:12;10.90;99.90
53310;DHT22;39197;53.200;5.792;2023-12-28T12:19:38;10.90;99.90
53310;DHT22;39197;53.200;5.792;2023-12-28T12:22:03;11.10;99.90
53310;DHT22;39197;53.200;5.792;2023-12-28T12:24:31;11.00;99.90
53310;DHT22;39197;53.200;5.792;2023-12-28T12:26:57;10.90;99.90
53310;DHT22;39197;53.200;5.792;2023-12-28T12:29:22;11.00;99.90
53310;DHT22;39197;53.200;5.792;2023-12-28T12:31:48;10.90;99.90
53310;DHT22;39197;53.200;5.792;2023-12-28T12:34:16;10.90;99.90
53310;DHT22;39197;53.200;5.792;2023-12-28T12:36:42;11.00;99.90
53310;DHT22;39197;53.200;5.792;2023-12-28T12:39:10;10.90;99.90
53310;DHT22;39197;53.200;5.792;2023-12-28T12:41:37;10.90;99.90
53310;DHT22;39197;53.200;5.792;2023-12-28T12:44:06;10.90;99.90
53310;DHT22;39197;53.200;5.792;2023-12-28T12:46:33;10.90;99.90
53310;DHT22;39197;53.200;5.792;2023-12-28T12:48:59;10.80;99.90
53310;DHT22;39197;53.200;5.792;2023-12-28T12:51:26;10.90;99.90
53310;DHT22;39197;53.200;5.792;2023-12-28T12:54:02;10.90;99.90
53310;DHT22;39197;53.200;5.792;2023-12-28T12:56:31;10.90;99.90
53310;DHT22;39197;53.200;5.792;2023-12-28T12:58:57;11.00;99.90
53310;DHT22;39197;53.200;5.792;2023-12-28T13:01:23;11.00;99.90
53310;DHT22;39197;53.200;5.792;2023-12-28T13:03:50;10.90;99.90
53310;DHT22;39197;53.200;5.792;2023-12-28T13:06:16;10.90;99.90
53310;DHT22;39197;53.200;5.792;2023-12-28T13:08:42;10.90;99.90
53310;DHT22;39197;53.200;5.792;2023-12-28T13:11:08;10.90;99.90
53310;DHT22;39197;53.200;5.792;2023-12-28T13:13:34;10.80;99.90
53310;DHT22;39197;53.200;5.792;2023-12-28T13:16:00;10.80;99.90
53310;DHT22;39197;53.200;5.792;2023-12-28T13:18:26;10.80;99.90
53310;DHT22;39197;53.200;5.792;2023-12-28T13:20:52;10.90;99.90
53310;DHT22;39197;53.200;5.792;2023-12-28T13:23:17;10.80;99.90
53310;DHT22;39197;53.200;5.792;2023-12-28T13:25:43;10.90;99.90
53310;DHT22;39197;53.200;5.792;2023-12-28T13:28:10;10.80;99.90
53310;DHT22;39197;53.200;5.792;2023-12-28T13:30:35;10.90;99.90
53310;DHT22;39197;53.200;5.792;2023-12-28T13:33:03;10.80;99.90
53310;DHT22;39197;53.200;5.792;2023-12-28T13:35:28;10.80;99.90
53310;DHT22;39197;53.200;5.792;2023-12-28T13:37:54;10.80;99.90
53310;DHT22;39197;53.200;5.792;2023-12-28T13:40:20;10.90;99.90
53310;DHT22;39197;53.200;5.792;2023-12-28T13:42:46;10.70;99.90
53310;DHT22;39197;53.200;5.792;2023-12-28T13:45:11;10.80;99.90
53310;DHT22;39197;53.200;5.792;2023-12-28T13:47:37;10.80;99.90
53310;DHT22;39197;53.200;5.792;2023-12-28T13:50:04;10.70;99.90
53310;DHT22;39197;53.200;5.792;2023-12-28T13:52:30;10.70;99.90
53310;DHT22;39197;53.200;5.792;2023-12-28T13:54:55;10.80;99.90
53310;DHT22;39197;53.200;5.792;2023-12-28T13:57:21;10.70;99.90
53310;DHT22;39197;53.200;5.792;2023-12-28T13:59:46;10.80;99.90
53310;DHT22;39197;53.200;5.792;2023-12-28T14:02:12;10.80;99.90
53310;DHT22;39197;53.200;5.792;2023-12-28T14:04:38;10.70;99.90
53310;DHT22;39197;53.200;5.792;2023-12-28T14:07:03;10.70;99.90
53310;DHT22;39197;53.200;5.792;2023-12-28T14:09:29;10.70;99.90
53310;DHT22;39197;53.200;5.792;2023-12-28T14:11:55;10.50;99.90
53310;DHT22;39197;53.200;5.792;2023-12-28T14:14:21;10.50;99.90
53310;DHT22;39197;53.200;5.792;2023-12-28T14:16:46;10.50;99.90
53310;DHT22;39197;53.200;5.792;2023-12-28T14:19:12;10.40;99.90
53310;DHT22;39197;53.200;5.792;2023-12-28T14:21:38;10.40;99.90
53310;DHT22;39197;53.200;5.792;2023-12-28T14:24:05;10.40;99.90
53310;DHT22;39197;53.200;5.792;2023-12-28T14:26:32;10.30;99.90
53310;DHT22;39197;53.200;5.792;2023-12-28T14:28:59;10.30;99.90
53310;DHT22;39197;53.200;5.792;2023-12-28T14:31:28;10.30;99.90
53310;DHT22;39197;53.200;5.792;2023-12-28T14:33:54;10.20;99.90
53310;DHT22;39197;53.200;5.792;2023-12-28T14:36:37;10.30;99.90
53310;DHT22;39197;53.200;5.792;2023-12-28T14:39:04;10.20;99.90
53310;DHT22;39197;53.200;5.792;2023-12-28T14:41:31;10.20;99.90
53310;DHT22;39197;53.200;5.792;2023-12-28T14:43:57;10.20;99.90
53310;DHT22;39197;53.200;5.792;2023-12-28T14:46:24;10.10;99.90
53310;DHT22;39197;53.200;5.792;2023-12-28T14:48:49;10.20;99.90
53310;DHT22;39197;53.200;5.792;2023-12-28T14:51:15;10.10;99.90
53310;DHT22;39197;53.200;5.792;2023-12-28T14:53:40;10.00;99.90
53310;DHT22;39197;53.200;5.792;2023-12-28T14:56:06;10.20;99.90
53310;DHT22;39197;53.200;5.792;2023-12-28T14:58:32;10.20;99.90
53310;DHT22;39197;53.200;5.792;2023-12-28T15:00:57;10.30;99.90
53310;DHT22;39197;53.200;5.792;2023-12-28T15:03:23;10.20;99.90
53310;DHT22;39197;53.200;5.792;2023-12-28T15:05:48;10.20;99.90
53310;DHT22;39197;53.200;5.792;2023-12-28T15:08:14;10.20;99.90
53310;DHT22;39197;53.200;5.792;2023-12-28T15:10:40;10.20;99.90
53310;DHT22;39197;53.200;5.792;2023-12-28T15:13:06;10.20;99.90
53310;DHT22;39197;53.200;5.792;2023-12-28T15:15:32;10.30;99.90
53310;DHT22;39197;53.200;5.792;2023-12-28T15:17:58;10.30;99.90
53310;DHT22;39197;53.200;5.792;2023-12-28T15:20:24;10.40;99.90
53310;DHT22;39197;53.200;5.792;2023-12-28T15:22:50;10.30;99.90
53310;DHT22;39197;53.200;5.792;2023-12-28T15:25:15;10.30;99.90
53310;DHT22;39197;53.200;5.792;2023-12-28T15:27:41;10.30;99.90
53310;DHT22;39197;53.200;5.792;2023-12-28T15:30:07;10.30;99.90
53310;DHT22;39197;53.200;5.792;2023-12-28T15:32:33;10.30;99.90